sensor_id;sensor_type;location;lat;lon;timestamp;pressure;altitude;pressure_sealevel;temperature;humidity
9690;BME280;4884;42.614;23.340;2024-02-14T00:01:50;92428.56;;;3.12;100.00
9690;BME280;4884;42.614;23.340;2024-02-14T00:04:16;92418.31;;;3.12;100.00
9690;BME280;4884;42.614;23.340;2024-02-14T00:06:41;92398.72;;;3.02;100.00
9690;BME280;4884;42.614;23.340;2024-02-14T00:09:06;92426.31;;;3.24;100.00
9690;BME280;4884;42.614;23.340;2024-02-14T00:11:32;92324.81;;;2.63;100.00
9690;BME280;4884;42.614;23.340;2024-02-14T00:13:58;92444.38;;;3.32;100.00
9690;BME280;4884;42.614;23.340;2024-02-14T00:16:25;92439.03;;;3.29;100.00
9690;BME280;4884;42.614;23.340;2024-02-14T00:18:50;92417.94;;;3.18;100.00
9690;BME280;4884;42.614;23.340;2024-02-14T00:21:16;92429.16;;;3.22;100.00
9690;BME280;4884;42.614;23.340;2024-02-14T00:23:41;92435.06;;;3.23;100.00
9690;BME280;4884;42.614;23.340;2024-02-14T00:26:07;92429.81;;;3.28;100.00
9690;BME280;4884;42.614;23.340;2024-02-14T00:28:32;92292.13;;;2.42;99.63
9690;BME280;4884;42.614;23.340;2024-02-14T00:30:58;92301.13;;;2.39;99.32
9690;BME280;4884;42.614;23.340;2024-02-14T00:33:23;92439.22;;;3.32;100.00
9690;BME280;4884;42.614;23.340;2024-02-14T00:35:49;92298.00;;;2.42;99.82
9690;BME280;4884;42.614;23.340;2024-02-14T00:38:14;92277.84;;;2.22;100.00
9690;BME280;4884;42.614;23.340;2024-02-14T00:40:40;92434.47;;;3.26;100.00
9690;BME280;4884;42.614;23.340;2024-02-14T00:43:05;92419.44;;;3.19;100.00
9690;BME280;4884;42.614;23.340;2024-02-14T00:45:30;92415.56;;;3.22;99.78
9690;BME280;4884;42.614;23.340;2024-02-14T00:47:56;92378.03;;;2.98;100.00
9690;BME280;4884;42.614;23.340;2024-02-14T00:50:21;92448.09;;;3.40;99.65
9690;BME280;4884;42.614;23.340;2024-02-14T00:52:47;92422.34;;;3.31;99.51
9690;BME280;4884;42.614;23.340;2024-02-14T00:55:12;92320.81;;;2.57;99.18
9690;BME280;4884;42.614;23.340;2024-02-14T00:57:38;92417.59;;;3.25;98.71
9690;BME280;4884;42.614;23.340;2024-02-14T01:00:04;92470.25;;;3.49;99.38
9690;BME280;4884;42.614;23.340;2024-02-14T01:02:31;92325.34;;;2.60;99.25
9690;BME280;4884;42.614;23.340;2024-02-14T01:04:56;92421.16;;;3.24;98.90
9690;BME280;4884;42.614;23.340;2024-02-14T01:07:22;92440.94;;;3.37;99.46
9690;BME280;4884;42.614;23.340;2024-02-14T01:09:47;92316.78;;;2.51;99.03
9690;BME280;4884;42.614;23.340;2024-02-14T01:12:14;92348.66;;;2.77;98.52
9690;BME280;4884;42.614;23.340;2024-02-14T01:14:39;92438.88;;;3.39;98.48
9690;BME280;4884;42.614;23.340;2024-02-14T01:17:05;92315.81;;;2.47;98.32
9690;BME280;4884;42.614;23.340;2024-02-14T01:19:30;92444.56;;;3.36;97.34
9690;BME280;4884;42.614;23.340;2024-02-14T01:21:56;92461.69;;;3.40;97.37
9690;BME280;4884;42.614;23.340;2024-02-14T01:24:22;92443.91;;;3.44;96.54
9690;BME280;4884;42.614;23.340;2024-02-14T01:26:48;92436.78;;;3.41;96.55
9690;BME280;4884;42.614;23.340;2024-02-14T01:29:14;92435.06;;;3.50;97.21
9690;BME280;4884;42.614;23.340;2024-02-14T01:31:41;92442.41;;;3.43;97.05
9690;BME280;4884;42.614;23.340;2024-02-14T01:34:07;92404.66;;;3.16;96.91
9690;BME280;4884;42.614;23.340;2024-02-14T01:36:32;92432.88;;;3.43;96.54
9690;BME280;4884;42.614;23.340;2024-02-14T01:38:58;92397.84;;;3.25;97.27
9690;BME280;4884;42.614;23.340;2024-02-14T01:41:23;92420.66;;;3.40;95.56
9690;BME280;4884;42.614;23.340;2024-02-14T01:43:49;92450.75;;;3.48;96.17
9690;BME280;4884;42.614;23.340;2024-02-14T01:46:15;92403.69;;;3.26;95.63
9690;BME280;4884;42.614;23.340;2024-02-14T01:48:41;92326.53;;;2.68;95.37
9690;BME280;4884;42.614;23.340;2024-02-14T01:51:08;92435.56;;;3.38;95.87
9690;BME280;4884;42.614;23.340;2024-02-14T01:53:36;92458.47;;;3.48;95.01
9690;BME280;4884;42.614;23.340;2024-02-14T01:56:03;92310.75;;;2.61;95.35
9690;BME280;4884;42.614;23.340;2024-02-14T01:58:29;92329.75;;;2.73;95.55
9690;BME280;4884;42.614;23.340;2024-02-14T02:00:56;92323.13;;;2.72;95.43
9690;BME280;4884;42.614;23.340;2024-02-14T02:03:25;92427.50;;;3.45;94.82
9690;BME280;4884;42.614;23.340;2024-02-14T02:05:55;92430.31;;;3.43;95.67
9690;BME280;4884;42.614;23.340;2024-02-14T02:08:21;92304.97;;;2.55;95.72
9690;BME280;4884;42.614;23.340;2024-02-14T02:10:47;92404.28;;;3.23;95.99
9690;BME280;4884;42.614;23.340;2024-02-14T02:13:12;92430.81;;;3.32;93.81
9690;BME280;4884;42.614;23.340;2024-02-14T02:15:37;92287.75;;;2.42;95.03
9690;BME280;4884;42.614;23.340;2024-02-14T02:18:03;92448.50;;;3.47;94.17
9690;BME280;4884;42.614;23.340;2024-02-14T02:20:31;92314.06;;;2.61;94.83
9690;BME280;4884;42.614;23.340;2024-02-14T02:22:58;92450.75;;;3.48;94.95
9690;BME280;4884;42.614;23.340;2024-02-14T02:25:23;92285.19;;;2.42;94.70
9690;BME280;4884;42.614;23.340;2024-02-14T02:27:51;92445.53;;;3.40;95.02
9690;BME280;4884;42.614;23.340;2024-02-14T02:30:16;92321.22;;;2.64;93.36
9690;BME280;4884;42.614;23.340;2024-02-14T02:32:42;92438.31;;;3.42;93.14
9690;BME280;4884;42.614;23.340;2024-02-14T02:35:08;92455.59;;;3.50;93.82
9690;BME280;4884;42.614;23.340;2024-02-14T02:37:35;92464.16;;;3.45;93.94
9690;BME280;4884;42.614;23.340;2024-02-14T02:40:00;92445.81;;;3.38;92.60
9690;BME280;4884;42.614;23.340;2024-02-14T02:42:26;92299.91;;;2.50;91.25
9690;BME280;4884;42.614;23.340;2024-02-14T02:44:51;92363.94;;;2.82;91.90
9690;BME280;4884;42.614;23.340;2024-02-14T02:47:17;92334.97;;;2.68;91.89
9690;BME280;4884;42.614;23.340;2024-02-14T02:49:43;92454.84;;;3.36;92.71
9690;BME280;4884;42.614;23.340;2024-02-14T02:52:12;92448.16;;;3.35;92.45
9690;BME280;4884;42.614;23.340;2024-02-14T02:54:38;92457.63;;;3.53;91.33
9690;BME280;4884;42.614;23.340;2024-02-14T02:57:07;92466.22;;;3.43;92.15
9690;BME280;4884;42.614;23.340;2024-02-14T02:59:34;92342.25;;;2.61;90.71
9690;BME280;4884;42.614;23.340;2024-02-14T03:02:00;92485.84;;;3.53;90.58
9690;BME280;4884;42.614;23.340;2024-02-14T03:04:26;92454.34;;;3.34;91.36
9690;BME280;4884;42.614;23.340;2024-02-14T03:06:51;92448.28;;;3.30;91.56
9690;BME280;4884;42.614;23.340;2024-02-14T03:09:16;92343.03;;;2.62;91.60
9690;BME280;4884;42.614;23.340;2024-02-14T03:11:46;92485.72;;;3.44;91.56
9690;BME280;4884;42.614;23.340;2024-02-14T03:14:12;92492.25;;;3.37;91.81
9690;BME280;4884;42.614;23.340;2024-02-14T03:16:38;92465.09;;;3.36;91.40
9690;BME280;4884;42.614;23.340;2024-02-14T03:19:04;92360.47;;;2.60;90.71
9690;BME280;4884;42.614;23.340;2024-02-14T03:21:30;92383.56;;;2.73;90.42
9690;BME280;4884;42.614;23.340;2024-02-14T03:23:57;92471.66;;;3.42;90.67
9690;BME280;4884;42.614;23.340;2024-02-14T03:26:22;92509.78;;;3.48;89.71
9690;BME280;4884;42.614;23.340;2024-02-14T03:28:48;92449.97;;;3.21;90.50
9690;BME280;4884;42.614;23.340;2024-02-14T03:31:32;92506.84;;;3.55;90.29
9690;BME280;4884;42.614;23.340;2024-02-14T03:33:58;92488.66;;;3.38;88.79
9690;BME280;4884;42.614;23.340;2024-02-14T03:36:23;92516.78;;;3.43;90.15
9690;BME280;4884;42.614;23.340;2024-02-14T03:38:49;92503.47;;;3.41;89.92
9690;BME280;4884;42.614;23.340;2024-02-14T03:41:15;92510.78;;;3.34;88.44
9690;BME280;4884;42.614;23.340;2024-02-14T03:43:40;92505.00;;;3.42;88.69
9690;BME280;4884;42.614;23.340;2024-02-14T03:46:06;92479.53;;;3.32;87.82
9690;BME280;4884;42.614;23.340;2024-02-14T03:48:31;92519.75;;;3.50;89.53
9690;BME280;4884;42.614;23.340;2024-02-14T03:50:57;92487.28;;;3.27;89.67
9690;BME280;4884;42.614;23.340;2024-02-14T03:53:23;92529.53;;;3.48;88.91
9690;BME280;4884;42.614;23.340;2024-02-14T03:55:48;92542.28;;;3.53;88.44
9690;BME280;4884;42.614;23.340;2024-02-14T03:58:14;92516.41;;;3.36;89.45
9690;BME280;4884;42.614;23.340;2024-02-14T04:00:42;92529.16;;;3.54;88.36
9690;BME280;4884;42.614;23.340;2024-02-14T04:03:12;92434.72;;;2.78;89.27
9690;BME280;4884;42.614;23.340;2024-02-14T04:05:37;92421.97;;;2.73;88.70
9690;BME280;4884;42.614;23.340;2024-02-14T04:08:03;92524.09;;;3.36;88.89
9690;BME280;4884;42.614;23.340;2024-02-14T04:10:28;92410.94;;;2.59;88.67
9690;BME280;4884;42.614;23.340;2024-02-14T04:12:54;92405.53;;;2.61;89.05
9690;BME280;4884;42.614;23.340;2024-02-14T04:15:20;92397.16;;;2.55;88.09
9690;BME280;4884;42.614;23.340;2024-02-14T04:17:45;92520.16;;;3.25;87.73
9690;BME280;4884;42.614;23.340;2024-02-14T04:20:11;92530.16;;;3.40;87.04
9690;BME280;4884;42.614;23.340;2024-02-14T04:22:36;92550.63;;;3.45;88.19
9690;BME280;4884;42.614;23.340;2024-02-14T04:25:01;92402.16;;;2.47;86.27
9690;BME280;4884;42.614;23.340;2024-02-14T04:27:27;92535.38;;;3.35;88.65
9690;BME280;4884;42.614;23.340;2024-02-14T04:29:53;92520.81;;;3.17;88.05
9690;BME280;4884;42.614;23.340;2024-02-14T04:32:18;92536.03;;;3.27;87.55
9690;BME280;4884;42.614;23.340;2024-02-14T04:34:45;92544.88;;;3.34;87.39
9690;BME280;4884;42.614;23.340;2024-02-14T04:37:10;92455.75;;;2.62;88.18
9690;BME280;4884;42.614;23.340;2024-02-14T04:39:39;92555.22;;;3.29;88.91
9690;BME280;4884;42.614;23.340;2024-02-14T04:42:04;92558.34;;;3.26;88.83
9690;BME280;4884;42.614;23.340;2024-02-14T04:44:31;92550.16;;;3.24;89.12
9690;BME280;4884;42.614;23.340;2024-02-14T04:46:57;92540.50;;;3.35;89.84
9690;BME280;4884;42.614;23.340;2024-02-14T04:49:26;92581.13;;;3.28;88.45
9690;BME280;4884;42.614;23.340;2024-02-14T04:51:52;92570.47;;;3.21;88.75
9690;BME280;4884;42.614;23.340;2024-02-14T04:54:17;92455.31;;;2.55;88.30
9690;BME280;4884;42.614;23.340;2024-02-14T04:56:43;92583.91;;;3.31;87.74
9690;BME280;4884;42.614;23.340;2024-02-14T04:59:08;92423.28;;;2.20;88.64
9690;BME280;4884;42.614;23.340;2024-02-14T05:01:34;92584.31;;;3.20;88.37
9690;BME280;4884;42.614;23.340;2024-02-14T05:04:00;92591.81;;;3.35;89.00
9690;BME280;4884;42.614;23.340;2024-02-14T05:06:25;92587.38;;;3.22;88.91
9690;BME280;4884;42.614;23.340;2024-02-14T05:08:51;92482.44;;;2.56;88.63
9690;BME280;4884;42.614;23.340;2024-02-14T05:11:19;92470.97;;;2.53;88.52
9690;BME280;4884;42.614;23.340;2024-02-14T05:13:44;92470.59;;;2.41;87.39
9690;BME280;4884;42.614;23.340;2024-02-14T05:16:10;92476.78;;;2.40;87.99
9690;BME280;4884;42.614;23.340;2024-02-14T05:18:37;92599.50;;;3.16;87.82
9690;BME280;4884;42.614;23.340;2024-02-14T05:21:06;92482.88;;;2.44;87.81
9690;BME280;4884;42.614;23.340;2024-02-14T05:23:32;92632.16;;;3.29;88.38
9690;BME280;4884;42.614;23.340;2024-02-14T05:25:58;92524.00;;;2.71;88.32
9690;BME280;4884;42.614;23.340;2024-02-14T05:28:23;92485.44;;;2.44;87.49
9690;BME280;4884;42.614;23.340;2024-02-14T05:30:48;92636.66;;;3.37;86.96
9690;BME280;4884;42.614;23.340;2024-02-14T05:33:14;92508.47;;;2.44;88.17
9690;BME280;4884;42.614;23.340;2024-02-14T05:35:39;92617.38;;;3.21;89.13
9690;BME280;4884;42.614;23.340;2024-02-14T05:38:04;92641.09;;;3.13;89.21
9690;BME280;4884;42.614;23.340;2024-02-14T05:40:33;92537.63;;;2.48;88.34
9690;BME280;4884;42.614;23.340;2024-02-14T05:42:58;92642.97;;;3.08;89.18
9690;BME280;4884;42.614;23.340;2024-02-14T05:45:23;92644.00;;;3.07;89.63
9690;BME280;4884;42.614;23.340;2024-02-14T05:47:49;92658.53;;;3.11;89.08
9690;BME280;4884;42.614;23.340;2024-02-14T05:50:14;92626.31;;;3.05;88.10
9690;BME280;4884;42.614;23.340;2024-02-14T05:52:40;92594.09;;;2.80;89.06
9690;BME280;4884;42.614;23.340;2024-02-14T05:55:05;92643.22;;;3.06;87.64
9690;BME280;4884;42.614;23.340;2024-02-14T05:57:31;92666.09;;;3.21;87.73
9690;BME280;4884;42.614;23.340;2024-02-14T05:59:57;92663.69;;;3.11;88.02
9690;BME280;4884;42.614;23.340;2024-02-14T06:02:22;92521.19;;;2.31;87.25
9690;BME280;4884;42.614;23.340;2024-02-14T06:04:47;92564.75;;;2.49;87.33
9690;BME280;4884;42.614;23.340;2024-02-14T06:07:13;92669.00;;;3.15;87.23
9690;BME280;4884;42.614;23.340;2024-02-14T06:09:38;92666.53;;;3.10;87.43
9690;BME280;4884;42.614;23.340;2024-02-14T06:12:04;92714.56;;;3.23;87.53
9690;BME280;4884;42.614;23.340;2024-02-14T06:14:29;92679.88;;;3.07;86.57
9690;BME280;4884;42.614;23.340;2024-02-14T06:16:56;92683.84;;;3.18;87.24
9690;BME280;4884;42.614;23.340;2024-02-14T06:19:22;92671.28;;;2.97;86.64
9690;BME280;4884;42.614;23.340;2024-02-14T06:21:47;92576.09;;;2.43;86.83
9690;BME280;4884;42.614;23.340;2024-02-14T06:24:12;92586.56;;;2.47;85.26
9690;BME280;4884;42.614;23.340;2024-02-14T06:26:38;92403.78;;;1.11;86.96
9690;BME280;4884;42.614;23.340;2024-02-14T06:29:04;92674.81;;;3.01;86.45
9690;BME280;4884;42.614;23.340;2024-02-14T06:31:29;92683.00;;;3.03;86.60
9690;BME280;4884;42.614;23.340;2024-02-14T06:33:54;92574.19;;;2.30;85.55
9690;BME280;4884;42.614;23.340;2024-02-14T06:36:20;92362.88;;;0.87;85.57
9690;BME280;4884;42.614;23.340;2024-02-14T06:38:45;92689.97;;;2.98;86.24
9690;BME280;4884;42.614;23.340;2024-02-14T06:41:11;92674.66;;;2.93;85.62
9690;BME280;4884;42.614;23.340;2024-02-14T06:43:37;92601.50;;;2.40;85.47
9690;BME280;4884;42.614;23.340;2024-02-14T06:46:05;92681.03;;;2.95;85.78
9690;BME280;4884;42.614;23.340;2024-02-14T06:48:30;92656.34;;;2.81;85.55
9690;BME280;4884;42.614;23.340;2024-02-14T06:50:55;92597.63;;;2.42;85.40
9690;BME280;4884;42.614;23.340;2024-02-14T06:53:21;92715.09;;;3.20;85.38
9690;BME280;4884;42.614;23.340;2024-02-14T06:55:46;92738.81;;;3.30;84.93
9690;BME280;4884;42.614;23.340;2024-02-14T06:58:11;92703.25;;;3.05;83.90
9690;BME280;4884;42.614;23.340;2024-02-14T07:00:37;92601.53;;;2.35;83.77
9690;BME280;4884;42.614;23.340;2024-02-14T07:03:02;92604.31;;;2.38;83.73
9690;BME280;4884;42.614;23.340;2024-02-14T07:05:28;92589.06;;;2.28;84.15
9690;BME280;4884;42.614;23.340;2024-02-14T07:07:54;92736.75;;;3.32;84.25
9690;BME280;4884;42.614;23.340;2024-02-14T07:10:20;92729.72;;;3.19;82.75
9690;BME280;4884;42.614;23.340;2024-02-14T07:12:45;92738.91;;;3.25;83.67
9690;BME280;4884;42.614;23.340;2024-02-14T07:15:11;92606.06;;;2.66;83.86
9690;BME280;4884;42.614;23.340;2024-02-14T07:17:36;92647.22;;;2.93;83.13
9690;BME280;4884;42.614;23.340;2024-02-14T07:20:04;92747.94;;;3.60;82.49
9690;BME280;4884;42.614;23.340;2024-02-14T07:22:29;92641.91;;;2.90;83.24
9690;BME280;4884;42.614;23.340;2024-02-14T07:24:59;92716.16;;;3.19;81.05
9690;BME280;4884;42.614;23.340;2024-02-14T07:27:24;92735.56;;;3.25;82.95
9690;BME280;4884;42.614;23.340;2024-02-14T07:29:50;92627.44;;;2.57;81.59
9690;BME280;4884;42.614;23.340;2024-02-14T07:32:15;92749.38;;;3.47;81.96
9690;BME280;4884;42.614;23.340;2024-02-14T07:34:42;92727.69;;;3.40;82.73
9690;BME280;4884;42.614;23.340;2024-02-14T07:37:07;92747.63;;;3.66;81.62
9690;BME280;4884;42.614;23.340;2024-02-14T07:39:33;92744.47;;;3.51;81.98
9690;BME280;4884;42.614;23.340;2024-02-14T07:42:03;92707.69;;;3.37;81.29
9690;BME280;4884;42.614;23.340;2024-02-14T07:44:28;92774.94;;;3.76;81.54
9690;BME280;4884;42.614;23.340;2024-02-14T07:46:54;92642.97;;;3.08;81.05
9690;BME280;4884;42.614;23.340;2024-02-14T07:49:19;92738.44;;;3.79;82.54
9690;BME280;4884;42.614;23.340;2024-02-14T07:51:45;92739.63;;;3.68;81.30
9690;BME280;4884;42.614;23.340;2024-02-14T07:54:11;92635.84;;;2.81;80.24
9690;BME280;4884;42.614;23.340;2024-02-14T07:56:36;92755.41;;;3.38;81.59
9690;BME280;4884;42.614;23.340;2024-02-14T07:59:01;92752.78;;;3.43;82.32
9690;BME280;4884;42.614;23.340;2024-02-14T08:01:27;92645.34;;;2.80;81.69
9690;BME280;4884;42.614;23.340;2024-02-14T08:03:53;92784.28;;;3.67;82.52
9690;BME280;4884;42.614;23.340;2024-02-14T08:06:19;92739.97;;;3.43;82.86
9690;BME280;4884;42.614;23.340;2024-02-14T08:08:45;92631.91;;;2.46;83.23
9690;BME280;4884;42.614;23.340;2024-02-14T08:11:10;92773.59;;;3.18;86.70
9690;BME280;4884;42.614;23.340;2024-02-14T08:13:36;92743.88;;;3.17;86.67
9690;BME280;4884;42.614;23.340;2024-02-14T08:16:02;92775.84;;;3.24;87.24
9690;BME280;4884;42.614;23.340;2024-02-14T08:18:27;92784.34;;;3.20;87.25
9690;BME280;4884;42.614;23.340;2024-02-14T08:20:53;92682.31;;;2.22;89.50
9690;BME280;4884;42.614;23.340;2024-02-14T08:23:18;92769.44;;;2.74;89.98
9690;BME280;4884;42.614;23.340;2024-02-14T08:25:45;92780.72;;;2.73;91.37
9690;BME280;4884;42.614;23.340;2024-02-14T08:28:11;92792.19;;;2.81;92.52
9690;BME280;4884;42.614;23.340;2024-02-14T08:30:36;92696.72;;;2.18;93.11
9690;BME280;4884;42.614;23.340;2024-02-14T08:33:03;92796.56;;;2.75;91.81
9690;BME280;4884;42.614;23.340;2024-02-14T08:35:28;92668.75;;;1.93;92.54
9690;BME280;4884;42.614;23.340;2024-02-14T08:37:54;92688.84;;;2.09;93.43
9690;BME280;4884;42.614;23.340;2024-02-14T08:40:20;92810.63;;;2.83;92.88
9690;BME280;4884;42.614;23.340;2024-02-14T08:42:45;92795.19;;;2.59;93.70
9690;BME280;4884;42.614;23.340;2024-02-14T08:45:11;92808.97;;;2.68;93.37
9690;BME280;4884;42.614;23.340;2024-02-14T08:47:36;92794.06;;;2.70;94.25
9690;BME280;4884;42.614;23.340;2024-02-14T08:50:04;92802.25;;;2.72;93.61
9690;BME280;4884;42.614;23.340;2024-02-14T08:52:29;92806.00;;;2.80;92.17
9690;BME280;4884;42.614;23.340;2024-02-14T08:54:54;92794.13;;;2.65;92.86
9690;BME280;4884;42.614;23.340;2024-02-14T08:57:20;92694.47;;;2.11;91.80
9690;BME280;4884;42.614;23.340;2024-02-14T08:59:46;92819.06;;;2.83;90.67
9690;BME280;4884;42.614;23.340;2024-02-14T09:02:13;92694.34;;;1.93;89.95
9690;BME280;4884;42.614;23.340;2024-02-14T09:04:39;92727.94;;;2.15;90.32
9690;BME280;4884;42.614;23.340;2024-02-14T09:07:06;92839.44;;;2.98;91.66
9690;BME280;4884;42.614;23.340;2024-02-14T09:09:32;92781.47;;;2.74;90.40
9690;BME280;4884;42.614;23.340;2024-02-14T09:11:58;92821.03;;;2.91;89.75
9690;BME280;4884;42.614;23.340;2024-02-14T09:14:27;92804.88;;;2.91;89.53
9690;BME280;4884;42.614;23.340;2024-02-14T09:16:52;92690.00;;;2.22;89.64
9690;BME280;4884;42.614;23.340;2024-02-14T09:19:18;92782.25;;;2.98;89.16
9690;BME280;4884;42.614;23.340;2024-02-14T09:21:43;92785.03;;;3.01;89.10
9690;BME280;4884;42.614;23.340;2024-02-14T09:24:09;92700.56;;;2.44;88.01
9690;BME280;4884;42.614;23.340;2024-02-14T09:26:35;92694.22;;;2.37;88.49
9690;BME280;4884;42.614;23.340;2024-02-14T09:29:00;92812.50;;;3.25;89.62
9690;BME280;4884;42.614;23.340;2024-02-14T09:31:25;92836.72;;;3.14;89.79
9690;BME280;4884;42.614;23.340;2024-02-14T09:33:51;92823.63;;;3.15;91.17
9690;BME280;4884;42.614;23.340;2024-02-14T09:36:18;92823.31;;;2.93;91.49
9690;BME280;4884;42.614;23.340;2024-02-14T09:38:44;92707.75;;;2.42;90.82
9690;BME280;4884;42.614;23.340;2024-02-14T09:43:46;92693.09;;;2.19;89.77
9690;BME280;4884;42.614;23.340;2024-02-14T09:46:15;92830.16;;;3.02;90.28
9690;BME280;4884;42.614;23.340;2024-02-14T09:48:50;92768.97;;;2.67;90.15
9690;BME280;4884;42.614;23.340;2024-02-14T09:51:17;92787.69;;;2.96;87.73
9690;BME280;4884;42.614;23.340;2024-02-14T09:53:42;92826.13;;;3.20;86.85
9690;BME280;4884;42.614;23.340;2024-02-14T09:56:10;92730.75;;;2.47;86.90
9690;BME280;4884;42.614;23.340;2024-02-14T09:58:36;92833.38;;;3.37;87.60
9690;BME280;4884;42.614;23.340;2024-02-14T10:01:02;92812.78;;;3.23;85.71
9690;BME280;4884;42.614;23.340;2024-02-14T10:03:28;92694.22;;;2.37;86.42
9690;BME280;4884;42.614;23.340;2024-02-14T10:05:54;92824.84;;;3.23;86.85
9690;BME280;4884;42.614;23.340;2024-02-14T10:08:19;92833.47;;;3.32;85.83
9690;BME280;4884;42.614;23.340;2024-02-14T10:10:49;92725.38;;;2.72;85.69
9690;BME280;4884;42.614;23.340;2024-02-14T10:13:15;92690.28;;;2.73;86.74
9690;BME280;4884;42.614;23.340;2024-02-14T10:15:41;92801.53;;;3.43;85.65
9690;BME280;4884;42.614;23.340;2024-02-14T10:18:06;92834.00;;;3.29;84.87
9690;BME280;4884;42.614;23.340;2024-02-14T10:20:34;92815.47;;;3.08;84.54
9690;BME280;4884;42.614;23.340;2024-02-14T10:23:07;92855.59;;;3.23;85.09
9690;BME280;4884;42.614;23.340;2024-02-14T10:25:34;92719.44;;;2.53;84.27
9690;BME280;4884;42.614;23.340;2024-02-14T10:28:06;92716.50;;;2.36;85.69
9690;BME280;4884;42.614;23.340;2024-02-14T10:30:34;92811.84;;;3.14;86.75
9690;BME280;4884;42.614;23.340;2024-02-14T10:33:02;92714.31;;;2.53;85.86
9690;BME280;4884;42.614;23.340;2024-02-14T10:35:32;92704.63;;;2.45;84.08
9690;BME280;4884;42.614;23.340;2024-02-14T10:37:58;92719.84;;;2.60;84.67
9690;BME280;4884;42.614;23.340;2024-02-14T10:40:32;92815.75;;;3.30;85.32
9690;BME280;4884;42.614;23.340;2024-02-14T10:42:58;92816.94;;;3.43;84.34
9690;BME280;4884;42.614;23.340;2024-02-14T10:45:24;92753.56;;;2.96;85.39
9690;BME280;4884;42.614;23.340;2024-02-14T10:47:52;92695.28;;;2.83;82.79
9690;BME280;4884;42.614;23.340;2024-02-14T10:50:21;92829.28;;;3.59;82.64
9690;BME280;4884;42.614;23.340;2024-02-14T10:52:48;92741.09;;;2.89;82.47
9690;BME280;4884;42.614;23.340;2024-02-14T10:55:15;92744.09;;;2.73;83.40
9690;BME280;4884;42.614;23.340;2024-02-14T10:57:43;92710.88;;;2.63;83.97
9690;BME280;4884;42.614;23.340;2024-02-14T11:00:10;92844.41;;;3.37;84.03
9690;BME280;4884;42.614;23.340;2024-02-14T11:02:39;92714.31;;;2.53;89.99
9690;BME280;4884;42.614;23.340;2024-02-14T11:05:18;92725.88;;;2.74;84.07
9690;BME280;4884;42.614;23.340;2024-02-14T11:07:47;92718.63;;;2.58;84.12
9690;BME280;4884;42.614;23.340;2024-02-14T11:10:15;92848.09;;;3.31;84.83
9690;BME280;4884;42.614;23.340;2024-02-14T11:12:41;92853.66;;;3.38;85.11
9690;BME280;4884;42.614;23.340;2024-02-14T11:15:20;92756.09;;;2.77;84.68
9690;BME280;4884;42.614;23.340;2024-02-14T11:17:46;92855.97;;;3.35;83.00
9690;BME280;4884;42.614;23.340;2024-02-14T11:23:05;92767.25;;;2.86;84.20
9690;BME280;4884;42.614;23.340;2024-02-14T11:25:37;92755.16;;;2.68;84.49
9690;BME280;4884;42.614;23.340;2024-02-14T11:28:13;92740.81;;;2.67;85.38
9690;BME280;4884;42.614;23.340;2024-02-14T11:30:40;92725.25;;;2.59;85.35
9690;BME280;4884;42.614;23.340;2024-02-14T11:35:41;92707.13;;;2.55;83.77
9690;BME280;4884;42.614;23.340;2024-02-14T11:38:08;92756.16;;;2.67;85.78
9690;BME280;4884;42.614;23.340;2024-02-14T11:40:34;92706.13;;;2.22;86.25
9690;BME280;4884;42.614;23.340;2024-02-14T11:43:00;92830.13;;;3.08;85.26
9690;BME280;4884;42.614;23.340;2024-02-14T11:45:27;92856.47;;;3.13;85.04
9690;BME280;4884;42.614;23.340;2024-02-14T11:47:52;92714.38;;;2.43;85.59
9690;BME280;4884;42.614;23.340;2024-02-14T11:50:18;92780.19;;;2.76;85.23
9690;BME280;4884;42.614;23.340;2024-02-14T11:52:44;92664.75;;;2.10;83.80
9690;BME280;4884;42.614;23.340;2024-02-14T11:55:10;92706.75;;;2.38;82.90
9690;BME280;4884;42.614;23.340;2024-02-14T11:57:38;92837.69;;;3.18;81.26
9690;BME280;4884;42.614;23.340;2024-02-14T12:00:04;92812.88;;;3.13;82.05
9690;BME280;4884;42.614;23.340;2024-02-14T12:02:30;92694.53;;;2.30;82.00
9690;BME280;4884;42.614;23.340;2024-02-14T12:04:55;92695.50;;;2.34;81.87
9690;BME280;4884;42.614;23.340;2024-02-14T12:07:22;92793.63;;;3.16;82.71
9690;BME280;4884;42.614;23.340;2024-02-14T12:09:48;92699.03;;;2.43;80.38
9690;BME280;4884;42.614;23.340;2024-02-14T12:12:15;92687.91;;;2.29;82.14
9690;BME280;4884;42.614;23.340;2024-02-14T12:14:43;92732.34;;;2.67;81.92
9690;BME280;4884;42.614;23.340;2024-02-14T12:17:10;92696.41;;;2.48;82.28
9690;BME280;4884;42.614;23.340;2024-02-14T12:19:35;92663.91;;;2.20;80.17
9690;BME280;4884;42.614;23.340;2024-02-14T12:22:09;92781.50;;;2.97;81.26
9690;BME280;4884;42.614;23.340;2024-02-14T12:24:37;92834.44;;;3.36;81.22
9690;BME280;4884;42.614;23.340;2024-02-14T12:27:04;92823.75;;;3.29;79.48
9690;BME280;4884;42.614;23.340;2024-02-14T12:29:29;92673.97;;;2.40;78.27
9690;BME280;4884;42.614;23.340;2024-02-14T12:32:07;92817.94;;;3.42;78.63
9690;BME280;4884;42.614;23.340;2024-02-14T12:34:33;92827.13;;;3.48;77.68
9690;BME280;4884;42.614;23.340;2024-02-14T12:36:59;92760.56;;;3.14;76.86
9690;BME280;4884;42.614;23.340;2024-02-14T12:39:28;92757.56;;;3.07;78.04
9690;BME280;4884;42.614;23.340;2024-02-14T12:41:54;92812.19;;;3.31;77.24
9690;BME280;4884;42.614;23.340;2024-02-14T12:44:20;92822.47;;;3.50;77.76
9690;BME280;4884;42.614;23.340;2024-02-14T12:46:45;92666.41;;;2.77;77.87
9690;BME280;4884;42.614;23.340;2024-02-14T12:49:11;92842.28;;;3.68;75.18
9690;BME280;4884;42.614;23.340;2024-02-14T12:51:36;92804.31;;;3.46;75.90
9690;BME280;4884;42.614;23.340;2024-02-14T12:54:04;92663.56;;;2.55;77.06
9690;BME280;4884;42.614;23.340;2024-02-14T12:56:31;92816.59;;;3.49;76.09
9690;BME280;4884;42.614;23.340;2024-02-14T12:58:56;92679.97;;;2.54;75.53
9690;BME280;4884;42.614;23.340;2024-02-14T13:01:22;92828.16;;;3.47;77.03
9690;BME280;4884;42.614;23.340;2024-02-14T13:03:48;92699.75;;;2.72;74.91
9690;BME280;4884;42.614;23.340;2024-02-14T13:06:13;92731.84;;;2.88;74.80
9690;BME280;4884;42.614;23.340;2024-02-14T13:08:41;92721.19;;;2.81;75.53
9690;BME280;4884;42.614;23.340;2024-02-14T13:11:07;92856.25;;;3.57;76.57
9690;BME280;4884;42.614;23.340;2024-02-14T13:13:34;92694.63;;;2.72;76.19
9690;BME280;4884;42.614;23.340;2024-02-14T13:16:00;92722.66;;;2.87;76.54
9690;BME280;4884;42.614;23.340;2024-02-14T13:18:25;92852.22;;;3.74;73.91
9690;BME280;4884;42.614;23.340;2024-02-14T13:20:50;92799.94;;;3.47;73.55
9690;BME280;4884;42.614;23.340;2024-02-14T13:23:22;92845.38;;;3.65;73.90
9690;BME280;4884;42.614;23.340;2024-02-14T13:25:48;92819.03;;;3.59;73.44